Time;durP1;ratioP1;P1;durP2;ratioP2;P2;SDS_P1;SDS_P2;PMS_P1;PMS_P2;Temp;Humidity;BMP_temperature;BMP_pressure;BME280_temperature;BME280_humidity;BME280_pressure;Samples;Min_cycle;Max_cycle;Signal;HPM_P1;HPM_P2
2021/05/29 00:01:58;;;;;;;5.17;3.22;;;;;;;21.32;57.14;99965.63;1829375;77;22194;-46
2021/05/29 00:04:31;;;;;;;4.25;3.05;;;;;;;21.22;57.42;99962.69;1834814;77;22611;-46
2021/05/29 00:07:04;;;;;;;4.97;3.08;;;;;;;21.10;57.65;99962.50;1845375;77;22203;-46
2021/05/29 00:09:38;;;;;;;5.37;3.05;;;;;;;21.08;57.68;99951.03;1853131;77;22179;-47
2021/05/29 00:12:12;;;;;;;3.80;3.33;;;;;;;21.06;57.70;99945.41;1822135;77;22197;-46
2021/05/29 00:14:48;;;;;;;4.12;3.30;;;;;;;20.98;58.01;99943.20;1834784;77;22618;-47
2021/05/29 00:17:21;;;;;;;4.72;2.90;;;;;;;20.90;58.26;99937.50;1816939;77;22193;-47
2021/05/29 00:19:54;;;;;;;4.53;3.20;;;;;;;20.88;58.21;99933.56;1834993;77;22164;-46
2021/05/29 00:22:27;;;;;;;4.62;3.20;;;;;;;20.83;58.53;99932.99;1808982;77;22621;-47
2021/05/29 00:25:14;;;;;;;3.87;2.70;;;;;;;20.79;58.55;99940.82;1761821;81;21133;-48
2021/05/29 00:27:47;;;;;;;3.60;3.05;;;;;;;20.78;58.66;99939.09;1808643;77;22217;-47
2021/05/29 00:30:22;;;;;;;5.25;3.47;;;;;;;20.80;58.63;99928.70;1830319;77;22123;-47
2021/05/29 00:32:56;;;;;;;4.60;3.33;;;;;;;20.79;58.70;99929.66;1835276;77;22186;-46
2021/05/29 00:35:48;;;;;;;5.28;2.83;;;;;;;20.78;58.75;99923.05;1825664;77;22221;-47
2021/05/29 00:38:22;;;;;;;4.30;3.10;;;;;;;20.81;58.64;99926.88;1810388;77;22190;-46
2021/05/29 00:41:16;;;;;;;3.42;2.60;;;;;;;20.80;58.59;99922.02;1833639;77;22659;-47
2021/05/29 00:43:49;;;;;;;4.10;2.77;;;;;;;20.81;58.54;99917.52;1821416;77;22477;-47
2021/05/29 00:46:23;;;;;;;5.40;3.55;;;;;;;20.82;58.40;99918.39;1834798;77;22183;-47
2021/05/29 00:48:57;;;;;;;3.92;3.02;;;;;;;20.76;58.45;99914.23;1816283;77;22163;-46
2021/05/29 00:51:30;;;;;;;3.95;2.85;;;;;;;20.75;58.51;99920.57;1833816;77;22180;-47
2021/05/29 00:54:06;;;;;;;4.42;3.17;;;;;;;20.75;58.38;99919.23;1834678;77;22591;-46
2021/05/29 00:56:52;;;;;;;3.98;2.87;;;;;;;20.71;58.27;99917.20;1789000;80;21320;-47
2021/05/29 00:59:25;;;;;;;3.65;2.58;;;;;;;20.69;58.31;99919.61;1834908;77;22179;-47
2021/05/29 01:01:58;;;;;;;7.40;2.80;;;;;;;20.63;58.32;99916.36;1829151;77;22191;-46
2021/05/29 01:04:32;;;;;;;4.60;3.17;;;;;;;20.62;58.38;99916.44;1853177;77;22151;-47
2021/05/29 01:07:18;;;;;;;4.08;3.02;;;;;;;20.59;58.31;99923.30;1730861;81;21192;-48
2021/05/29 01:10:13;;;;;;;5.05;2.72;;;;;;;20.62;58.20;99923.99;1840876;77;22241;-47
2021/05/29 01:12:46;;;;;;;5.37;3.90;;;;;;;20.59;58.18;99917.50;1803730;77;28063;-47
2021/05/29 01:15:20;;;;;;;6.80;3.05;;;;;;;20.57;58.20;99915.39;1832508;77;22135;-47
2021/05/29 01:17:53;;;;;;;4.28;2.95;;;;;;;20.54;58.22;99906.23;1817525;77;22664;-46
2021/05/29 01:20:27;;;;;;;4.30;2.85;;;;;;;20.53;58.26;99911.68;1834741;77;22203;-46
2021/05/29 01:23:00;;;;;;;6.30;3.42;;;;;;;20.51;58.32;99905.08;1789712;77;22195;-47
2021/05/29 01:25:47;;;;;;;3.83;2.92;;;;;;;20.44;58.41;99908.61;1755744;81;21107;-47
2021/05/29 01:28:25;;;;;;;4.20;2.72;;;;;;;20.48;58.39;99898.12;1811566;77;22178;-46
2021/05/29 01:31:02;;;;;;;4.17;2.83;;;;;;;20.47;58.36;99889.72;1852195;77;22127;-47
2021/05/29 01:33:37;;;;;;;5.47;2.98;;;;;;;20.44;58.46;99886.36;1807397;77;22159;-47
2021/05/29 01:36:11;;;;;;;6.45;3.27;;;;;;;20.41;58.54;99890.55;1834808;77;22179;-47
2021/05/29 01:38:44;;;;;;;5.28;2.92;;;;;;;20.37;58.65;99891.23;1806143;77;22170;-46
2021/05/29 01:41:19;;;;;;;4.17;3.00;;;;;;;20.08;59.32;99888.52;1827556;77;22158;-46
2021/05/29 01:43:52;;;;;;;3.67;2.70;;;;;;;20.25;59.25;99882.61;1803558;77;22652;-47
2021/05/29 01:46:26;;;;;;;4.90;3.37;;;;;;;20.23;59.32;99877.84;1834899;77;22179;-46
2021/05/29 01:48:59;;;;;;;6.90;3.62;;;;;;;20.20;59.46;99869.55;1820396;77;22191;-46
2021/05/29 01:51:32;;;;;;;6.35;3.52;;;;;;;20.21;59.43;99868.10;1833573;77;22187;-47
2021/05/29 01:54:18;;;;;;;6.70;3.25;;;;;;;19.66;60.65;99868.22;1765140;81;21276;-48
2021/05/29 01:56:53;;;;;;;4.65;3.47;;;;;;;19.16;62.92;99878.20;1831505;77;22183;-47
2021/05/29 01:59:26;;;;;;;7.10;3.12;;;;;;;19.98;60.57;99868.64;1830309;77;22135;-47
2021/05/29 02:02:00;;;;;;;5.65;3.90;;;;;;;20.12;60.13;99871.33;1826401;77;22178;-47
2021/05/29 02:04:33;;;;;;;5.12;3.02;;;;;;;20.18;60.04;99878.13;1834808;77;22180;-47
2021/05/29 02:07:06;;;;;;;5.58;3.25;;;;;;;20.19;59.94;99879.84;1826971;77;22178;-47
2021/05/29 02:09:40;;;;;;;4.20;3.12;;;;;;;20.20;59.98;99886.42;1833894;77;22160;-47
2021/05/29 02:12:14;;;;;;;4.22;2.98;;;;;;;20.24;59.92;99896.47;1844764;77;22190;-46
2021/05/29 02:14:48;;;;;;;4.15;3.00;;;;;;;20.28;59.81;99899.80;1834814;77;22179;-47
2021/05/29 02:17:21;;;;;;;6.15;3.05;;;;;;;20.27;59.74;99898.95;1841658;77;22193;-47
2021/05/29 02:19:54;;;;;;;4.35;2.90;;;;;;;20.25;59.69;99892.84;1825771;77;22119;-46
2021/05/29 02:22:28;;;;;;;3.67;2.72;;;;;;;20.18;59.88;99896.34;1818427;77;22193;-46
2021/05/29 02:25:01;;;;;;;4.47;2.90;;;;;;;20.16;59.86;99902.25;1834374;77;22184;-47
2021/05/29 02:27:47;;;;;;;7.55;2.77;;;;;;;20.11;59.93;99903.48;1727874;82;21621;-47
2021/05/29 02:30:22;;;;;;;4.33;3.02;;;;;;;20.08;60.21;99900.54;1834770;77;22583;-48
2021/05/29 02:33:15;;;;;;;5.70;3.40;;;;;;;20.06;60.28;99891.27;1813256;77;22721;-47
2021/05/29 02:35:58;;;;;;;5.65;3.17;;;;;;;20.06;60.28;99892.59;1830602;77;22135;-47
2021/05/29 02:38:33;;;;;;;4.05;2.98;;;;;;;20.04;60.43;99893.66;1808377;77;22178;-47
2021/05/29 02:41:09;;;;;;;5.40;2.80;;;;;;;20.04;60.45;99890.98;1853119;77;22194;-47
2021/05/29 02:43:42;;;;;;;9.00;3.08;;;;;;;20.08;60.40;99892.53;1792566;77;20114;-47
2021/05/29 02:46:15;;;;;;;6.58;3.20;;;;;;;20.12;60.37;99896.70;1833704;77;22179;-47
2021/05/29 02:48:49;;;;;;;5.03;2.92;;;;;;;20.18;60.31;99900.34;1822782;77;22193;-47
2021/05/29 02:51:22;;;;;;;5.50;3.20;;;;;;;20.19;60.29;99899.39;1853140;77;22171;-47
2021/05/29 02:54:15;;;;;;;4.83;3.27;;;;;;;20.17;60.32;99901.30;1827269;77;22197;-47
2021/05/29 02:56:49;;;;;;;5.37;2.80;;;;;;;20.17;60.45;99903.13;1838446;77;22166;-47
2021/05/29 02:59:22;;;;;;;4.72;3.12;;;;;;;20.19;60.45;99903.89;1853249;77;22178;-47
2021/05/29 03:01:55;;;;;;;4.28;3.00;;;;;;;20.15;60.65;99902.36;1830521;77;22184;-46
2021/05/29 03:04:29;;;;;;;4.58;3.05;;;;;;;20.13;60.77;99901.09;1820783;77;22185;-46
2021/05/29 03:07:04;;;;;;;5.03;3.12;;;;;;;20.14;60.94;99912.16;1809940;77;22199;-46
2021/05/29 03:09:37;;;;;;;4.60;3.05;;;;;;;20.19;61.00;99912.75;1853146;77;22179;-47
2021/05/29 03:12:12;;;;;;;8.48;3.15;;;;;;;20.24;61.02;99913.83;1828003;77;22197;-47
2021/05/29 03:14:45;;;;;;;6.20;3.40;;;;;;;20.30;60.90;99915.27;1829927;77;22120;-47
2021/05/29 03:17:25;;;;;;;6.20;2.95;;;;;;;20.38;61.02;99907.64;1823161;77;22174;-47
2021/05/29 03:19:58;;;;;;;5.12;3.12;;;;;;;20.44;60.97;99905.94;1834760;77;22611;-46
2021/05/29 03:22:32;;;;;;;7.37;3.70;;;;;;;20.52;61.04;99905.95;1813117;77;22654;-47
2021/05/29 03:25:07;;;;;;;8.43;3.70;;;;;;;20.57;60.96;99910.05;1811328;77;22196;-47
2021/05/29 03:27:40;;;;;;;6.05;3.58;;;;;;;;;;1838542;77;22605;-47
2021/05/29 03:30:16;;;;;;;5.90;3.45;;;;;;;20.75;60.82;99915.22;1850513;77;22183;-47
2021/05/29 03:32:50;;;;;;;8.03;3.60;;;;;;;20.83;60.66;99920.95;1804782;77;22605;-47
2021/05/29 03:35:23;;;;;;;6.45;3.30;;;;;;;20.89;60.57;99922.41;1834881;77;22519;-47
2021/05/29 03:37:57;;;;;;;6.10;3.45;;;;;;;20.97;60.58;99921.91;1834767;77;22169;-47
2021/05/29 03:40:31;;;;;;;8.18;3.55;;;;;;;21.02;60.56;99926.50;1852146;77;22183;-47
2021/05/29 03:43:04;;;;;;;6.60;3.47;;;;;;;21.05;60.54;99927.15;1803112;77;22609;-47
2021/05/29 03:45:57;;;;;;;6.35;3.72;;;;;;;21.13;60.66;99932.50;1826891;77;22649;-47
2021/05/29 03:48:50;;;;;;;6.12;3.27;;;;;;;21.17;60.83;99930.88;1795884;77;22274;-47
2021/05/29 03:51:24;;;;;;;6.03;3.62;;;;;;;21.26;60.93;99930.77;1834091;77;22136;-47
2021/05/29 03:53:57;;;;;;;7.00;4.08;;;;;;;20.78;62.74;99935.97;1820906;77;22189;-60
2021/05/29 03:56:31;;;;;;;7.10;3.83;;;;;;;21.35;61.59;99933.31;1834781;77;22183;-58
2021/05/29 03:59:04;;;;;;;6.53;3.67;;;;;;;21.57;61.45;99938.63;1834752;77;22576;-58
2021/05/29 04:01:38;;;;;;;5.67;3.42;;;;;;;21.76;61.00;99942.32;1815832;77;22182;-59
2021/05/29 04:04:11;;;;;;;7.80;3.62;;;;;;;21.84;60.82;99937.31;1819841;77;22186;-59
2021/05/29 04:06:45;;;;;;;5.22;3.15;;;;;;;21.96;60.63;99941.83;1822810;77;22654;-59
2021/05/29 04:09:18;;;;;;;8.38;3.75;;;;;;;22.09;60.14;99943.70;1814682;77;22570;-59
2021/05/29 04:11:51;;;;;;;5.83;3.50;;;;;;;22.17;59.55;99941.83;1821748;77;22186;-59
2021/05/29 04:14:24;;;;;;;4.70;3.33;;;;;;;22.35;59.67;99943.72;1820692;77;22147;-59
2021/05/29 04:16:58;;;;;;;9.70;3.85;;;;;;;22.47;59.21;99943.42;1816805;77;22203;-60
2021/05/29 04:19:32;;;;;;;5.40;3.37;;;;;;;22.49;58.15;99945.52;1816422;77;22162;-59
2021/05/29 04:22:06;;;;;;;6.97;3.60;;;;;;;22.51;57.92;99952.97;1809712;77;22654;-59
2021/05/29 04:24:39;;;;;;;5.87;3.58;;;;;;;22.51;57.72;99963.70;1818187;77;22242;-59
2021/05/29 04:27:13;;;;;;;7.72;4.00;;;;;;;22.49;57.71;99968.30;1809267;77;22182;-60
2021/05/29 04:30:08;;;;;;;7.67;3.80;;;;;;;22.53;57.51;99965.75;1823975;77;22207;-59
2021/05/29 04:32:42;;;;;;;10.38;3.60;;;;;;;22.51;57.13;99969.06;1803179;77;22167;-60
2021/05/29 04:35:16;;;;;;;6.62;3.40;;;;;;;22.46;57.12;99972.53;1822717;77;22193;-59
2021/05/29 04:37:50;;;;;;;4.20;3.15;;;;;;;22.37;57.09;99973.50;1813519;77;22167;-60
2021/05/29 04:40:24;;;;;;;4.60;3.52;;;;;;;22.34;57.28;99972.84;1821142;77;22135;-60
2021/05/29 04:43:00;;;;;;;5.03;3.20;;;;;;;22.34;57.29;99979.54;1802480;77;22205;-59
2021/05/29 04:45:33;;;;;;;4.67;3.30;;;;;;;22.32;57.42;99983.68;1828713;77;22162;-60
2021/05/29 04:48:08;;;;;;;5.80;3.22;;;;;;;22.36;57.56;99985.66;1814528;77;22665;-60
2021/05/29 04:53:33;;;;;;;7.10;3.65;;;;;;;22.43;57.56;100002.61;1808557;77;22602;-60
2021/05/29 04:56:07;;;;;;;6.35;3.55;;;;;;;22.52;57.57;100005.64;1852258;77;22139;-60
2021/05/29 04:58:40;;;;;;;7.53;3.77;;;;;;;22.61;57.38;100007.66;1807032;77;22170;-60
2021/05/29 05:01:13;;;;;;;5.92;3.62;;;;;;;22.73;57.35;100012.19;1837711;77;22191;-59
2021/05/29 05:03:46;;;;;;;7.95;4.17;;;;;;;22.83;57.08;100014.23;1805572;77;22190;-60
2021/05/29 05:06:20;;;;;;;4.15;3.58;;;;;;;22.90;56.90;100017.34;1832223;77;22154;-60
2021/05/29 05:08:53;;;;;;;6.85;4.28;;;;;;;22.91;56.50;100014.56;1790387;77;22206;-61
2021/05/29 05:11:27;;;;;;;6.03;4.33;;;;;;;22.86;56.38;100017.55;1819715;77;22150;-60
2021/05/29 05:14:01;;;;;;;7.30;4.50;;;;;;;22.87;56.41;100021.11;1820082;77;22214;-61
2021/05/29 05:16:36;;;;;;;5.47;4.10;;;;;;;22.85;56.19;100014.48;1820471;77;22183;-47
2021/05/29 05:19:10;;;;;;;7.55;4.50;;;;;;;22.82;56.16;100019.23;1818437;77;22138;-59
2021/05/29 05:21:44;;;;;;;6.55;4.47;;;;;;;22.78;56.34;100020.40;1833232;77;22179;-59
2021/05/29 05:24:17;;;;;;;8.73;5.00;;;;;;;22.68;56.52;100025.05;1834889;77;22180;-59
2021/05/29 05:26:50;;;;;;;6.62;4.55;;;;;;;22.69;56.44;100029.45;1828024;77;22186;-60
2021/05/29 05:29:23;;;;;;;7.08;4.58;;;;;;;22.68;56.32;100030.92;1819440;77;22162;-48
2021/05/29 05:31:58;;;;;;;5.50;4.62;;;;;;;22.58;56.49;100023.50;1802766;77;22221;-58
2021/05/29 05:34:33;;;;;;;5.03;4.53;;;;;;;22.49;56.74;100027.30;1811517;77;22186;-48
2021/05/29 05:37:07;;;;;;;6.10;4.90;;;;;;;22.47;56.85;100023.86;1836655;77;22213;-47
2021/05/29 05:39:41;;;;;;;6.20;5.20;;;;;;;22.40;57.06;100020.22;1826799;77;22202;-47
2021/05/29 05:42:14;;;;;;;6.10;5.50;;;;;;;22.43;57.25;100018.70;1826499;77;22602;-48
2021/05/29 05:44:47;;;;;;;6.40;5.78;;;;;;;22.52;57.12;100026.59;1828511;77;22185;-47
2021/05/29 05:47:21;;;;;;;8.65;6.30;;;;;;;22.55;57.09;100026.38;1807823;77;22182;-49
2021/05/29 05:49:54;;;;;;;7.08;5.72;;;;;;;22.63;56.68;100030.37;1834808;77;22183;-47
2021/05/29 05:52:28;;;;;;;7.50;6.72;;;;;;;22.64;56.48;100026.22;1823473;77;22175;-48
2021/05/29 05:55:02;;;;;;;7.03;6.33;;;;;;;22.58;56.38;100015.45;1828151;77;22135;-47
2021/05/29 05:57:35;;;;;;;7.83;7.03;;;;;;;22.56;56.34;100024.08;1812363;77;22178;-47
2021/05/29 06:00:11;;;;;;;8.10;7.30;;;;;;;22.57;56.20;100022.24;1834825;77;22626;-47
2021/05/29 06:02:46;;;;;;;9.58;7.65;;;;;;;22.57;56.30;100022.24;1819596;77;20237;-47
2021/05/29 06:05:19;;;;;;;9.98;9.03;;;;;;;22.53;56.31;100012.22;1828684;77;22134;-47
2021/05/29 06:08:06;;;;;;;19.92;10.32;;;;;;;22.49;56.23;100011.20;1787349;79;21119;-47
2021/05/29 06:10:39;;;;;;;11.95;9.08;;;;;;;22.43;56.21;100012.43;1834710;77;22168;-47
2021/05/29 06:13:15;;;;;;;12.00;9.83;;;;;;;22.40;56.29;100012.64;1806121;77;22181;-47
2021/05/29 06:21:28;;;;;;;11.08;9.98;;;;;;;22.84;55.53;100028.87;1806148;77;22158;-47
2021/05/29 06:24:01;;;;;;;11.25;9.95;;;;;;;22.81;54.97;100023.72;1819826;77;22191;-47
2021/05/29 06:26:34;;;;;;;11.80;10.60;;;;;;;22.89;54.49;100017.84;1821274;77;22171;-47
2021/05/29 06:29:13;;;;;;;11.83;10.58;;;;;;;22.95;54.58;100022.78;1818207;77;22162;-58
2021/05/29 06:31:47;;;;;;;12.13;10.85;;;;;;;23.07;54.56;100030.44;1814763;77;22217;-59
2021/05/29 06:34:22;;;;;;;11.00;9.90;;;;;;;23.21;54.43;100032.14;1831168;77;22595;-59
2021/05/29 06:36:56;;;;;;;11.50;10.30;;;;;;;23.26;54.01;100031.84;1808751;77;22598;-58
2021/05/29 06:39:31;;;;;;;12.80;9.75;;;;;;;23.25;53.91;100027.44;1830578;77;22179;-57
2021/05/29 06:42:06;;;;;;;9.90;9.00;;;;;;;23.22;53.37;100020.91;1799313;77;22213;-59
2021/05/29 06:44:40;;;;;;;12.90;11.20;;;;;;;23.23;53.14;100026.22;1832139;77;22515;-59
2021/05/29 06:47:26;;;;;;;12.18;10.88;;;;;;;23.26;53.37;100032.71;1782602;80;21130;-58
2021/05/29 06:50:08;;;;;;;11.78;10.18;;;;;;;23.41;53.31;100028.06;1812053;77;22147;-60
2021/05/29 06:52:48;;;;;;;15.75;12.05;;;;;;;23.57;52.88;100030.49;1805885;77;22198;-60
2021/05/29 07:01:02;;;;;;;13.98;12.13;;;;;;;23.97;52.08;100036.59;1853147;77;22147;-60
2021/05/29 07:03:36;;;;;;;12.80;11.57;;;;;;;24.08;52.08;100030.44;1807826;77;22168;-59
2021/05/29 07:06:10;;;;;;;12.28;10.98;;;;;;;24.15;51.87;100037.08;1853105;77;22179;-58
2021/05/29 07:08:43;;;;;;;13.15;11.93;;;;;;;24.10;51.86;100040.59;1823825;77;22161;-59
2021/05/29 07:11:18;;;;;;;12.45;11.18;;;;;;;24.05;51.51;100040.95;1853083;77;22179;-58
2021/05/29 07:13:51;;;;;;;14.00;11.57;;;;;;;24.01;51.93;100044.84;1822217;77;22637;-59
2021/05/29 07:16:24;;;;;;;12.53;11.05;;;;;;;24.04;52.32;100042.80;1848386;77;22616;-60
2021/05/29 07:18:58;;;;;;;15.75;11.73;;;;;;;24.15;52.29;100039.77;1820778;77;22225;-57
2021/05/29 07:21:34;;;;;;;13.72;11.97;;;;;;;24.26;52.15;100033.61;1834727;77;22163;-58
2021/05/29 07:24:08;;;;;;;11.85;10.75;;;;;;;24.33;51.83;100041.09;1820186;77;22161;-59
2021/05/29 07:27:02;;;;;;;12.80;11.55;;;;;;;24.35;51.08;100034.23;1805949;77;22662;-59
2021/05/29 07:29:48;;;;;;;21.65;12.75;;;;;;;24.35;51.29;100039.61;1823456;77;22130;-60
2021/05/29 07:32:21;;;;;;;14.78;10.98;;;;;;;24.40;51.11;100037.94;1824039;77;22206;-59
2021/05/29 07:34:55;;;;;;;13.00;11.12;;;;;;;24.44;50.88;100038.91;1828515;77;22575;-58
2021/05/29 07:37:28;;;;;;;14.55;13.03;;;;;;;24.52;51.00;100036.97;1823235;77;22190;-59
2021/05/29 07:40:02;;;;;;;12.85;10.13;;;;;;;24.70;51.00;100043.27;1834844;77;22180;-59
2021/05/29 07:42:36;;;;;;;13.18;11.20;;;;;;;24.90;51.05;100042.62;1814091;77;22202;-47
2021/05/29 07:45:11;;;;;;;12.88;11.60;;;;;;;25.19;50.24;100046.67;1813948;77;22633;-59
2021/05/29 07:47:44;;;;;;;13.83;11.05;;;;;;;25.37;49.60;100042.52;1837673;77;22194;-59
2021/05/29 07:50:18;;;;;;;11.93;10.63;;;;;;;25.45;48.77;100046.47;1830787;77;22191;-59
2021/05/29 07:52:55;;;;;;;12.07;10.85;;;;;;;25.46;48.57;100051.72;1818008;77;22222;-59
2021/05/29 07:55:30;;;;;;;13.88;10.55;;;;;;;25.45;48.32;100048.66;1834808;77;22579;-59
2021/05/29 07:58:03;;;;;;;26.27;22.85;;;;;;;25.54;48.36;100038.50;1815288;77;22220;-60
2021/05/29 08:00:38;;;;;;;39.58;23.20;;;;;;;25.68;48.12;100034.67;1840410;77;22144;-60
2021/05/29 08:03:12;;;;;;;18.00;14.30;;;;;;;25.78;48.01;100034.80;1813302;77;22178;-60
2021/05/29 08:05:45;;;;;;;13.00;10.82;;;;;;;25.92;48.11;100032.78;1834725;77;22203;-59
2021/05/29 08:08:21;;;;;;;10.93;9.83;;;;;;;26.12;47.79;100019.86;1829704;77;22206;-60
2021/05/29 08:10:57;;;;;;;9.88;8.95;;;;;;;26.34;48.21;100028.02;1853108;77;22638;-47
2021/05/29 08:13:31;;;;;;;12.43;9.48;;;;;;;26.70;47.84;100024.03;1826948;77;22189;-47
2021/05/29 08:16:07;;;;;;;10.05;9.05;;;;;;;27.03;47.06;100018.53;1853131;77;22154;-49
2021/05/29 08:18:42;;;;;;;11.00;9.03;;;;;;;27.24;46.64;100015.78;1806786;77;22218;-59
2021/05/29 08:21:16;;;;;;;11.75;8.13;;;;;;;27.56;45.86;100011.23;1819931;77;22537;-59
2021/05/29 08:23:49;;;;;;;9.20;7.90;;;;;;;27.87;45.69;100005.25;1804871;77;22182;-61
2021/05/29 08:26:23;;;;;;;11.93;9.70;;;;;;;28.21;44.33;100005.38;1834775;77;22183;-47
2021/05/29 08:28:56;;;;;;;10.00;9.00;;;;;;;28.46;43.74;100003.06;1812119;77;22195;-49
2021/05/29 08:31:30;;;;;;;9.13;8.10;;;;;;;28.54;43.35;99997.79;1833520;77;22175;-60
2021/05/29 08:34:03;;;;;;;8.93;8.03;;;;;;;28.59;42.37;100005.46;1910401;74;22128;-59
2021/05/29 08:36:39;;;;;;;10.05;8.55;;;;;;;28.47;42.17;100007.00;1834762;77;22619;-58
2021/05/29 08:39:13;;;;;;;11.97;10.78;;;;;;;28.26;42.53;100002.23;1820313;77;22163;-59
2021/05/29 08:41:46;;;;;;;10.30;8.23;;;;;;;28.19;43.29;100004.16;1831513;77;22174;-60
2021/05/29 08:44:20;;;;;;;10.05;6.65;;;;;;;28.08;43.02;99999.36;1853150;77;22179;-58
2021/05/29 08:46:53;;;;;;;10.70;7.53;;;;;;;28.01;43.14;100002.63;1821298;77;22190;-59
2021/05/29 08:49:26;;;;;;;12.82;6.15;;;;;;;28.01;43.25;99997.73;1822668;77;22115;-59
2021/05/29 08:52:20;;;;;;;10.40;5.90;;;;;;;27.95;42.91;99993.72;1783923;80;21151;-58
2021/05/29 08:54:57;;;;;;;11.65;6.87;;;;;;;28.13;43.61;99989.00;1836364;77;22159;-59
2021/05/29 08:57:30;;;;;;;9.90;5.95;;;;;;;28.58;44.07;99992.44;1840165;77;22182;-59
2021/05/29 09:00:07;;;;;;;6.28;5.67;;;;;;;28.93;42.61;99984.66;1834924;77;22180;-58
2021/05/29 09:03:04;;;;;;;11.83;5.30;;;;;;;29.22;42.00;99991.83;1820569;77;22187;-48
2021/05/29 09:05:51;;;;;;;5.25;4.40;;;;;;;29.27;40.05;99986.82;1834948;77;22152;-49
2021/05/29 09:08:27;;;;;;;17.60;5.50;;;;;;;29.12;39.86;99982.41;1801551;77;22625;-59
2021/05/29 09:11:03;;;;;;;6.00;4.25;;;;;;;29.11;40.54;99989.31;1834929;77;22179;-58
2021/05/29 09:13:36;;;;;;;5.72;4.58;;;;;;;29.28;40.08;99982.23;1784454;77;22201;-61
2021/05/29 09:16:09;;;;;;;5.78;4.85;;;;;;;29.59;40.05;99979.23;1829854;77;22598;-59
2021/05/29 09:18:45;;;;;;;8.03;4.67;;;;;;;29.76;38.79;99984.35;1806623;77;22186;-49
2021/05/29 09:21:34;;;;;;;7.85;4.45;;;;;;;29.83;38.90;99982.70;1753655;80;21280;-60
2021/05/29 09:24:16;;;;;;;5.42;4.67;;;;;;;30.02;38.51;99973.62;1834863;77;22180;-59
2021/05/29 09:26:54;;;;;;;5.17;4.47;;;;;;;30.29;38.33;99983.14;1824584;77;22139;-50
2021/05/29 09:29:33;;;;;;;8.95;4.20;;;;;;;30.54;38.11;99982.34;1834164;77;22618;-59
2021/05/29 09:32:08;;;;;;;5.65;3.92;;;;;;;30.79;38.32;99983.03;1804871;77;22182;-49
2021/05/29 09:34:49;;;;;;;6.67;4.37;;;;;;;30.88;36.43;99980.72;1839460;77;22606;-59
2021/05/29 09:37:27;;;;;;;8.28;5.05;;;;;;;30.78;37.35;99981.33;1824714;77;22206;-49
2021/05/29 09:40:09;;;;;;;7.53;5.35;;;;;;;30.77;36.59;99979.63;1820602;77;22571;-48
2021/05/29 09:42:43;;;;;;;8.45;4.97;;;;;;;30.58;36.71;99978.81;1820236;77;22186;-55
2021/05/29 09:45:31;;;;;;;8.60;4.78;;;;;;;30.53;37.65;99979.77;1761951;81;21147;-49
2021/05/29 09:48:19;;;;;;;5.35;4.58;;;;;;;30.78;37.13;99972.66;1814114;77;22186;-48
2021/05/29 09:51:12;;;;;;;8.28;5.03;;;;;;;31.16;37.60;99975.10;1834868;77;22578;-50
2021/05/29 09:53:48;;;;;;;7.65;5.40;;;;;;;31.52;37.26;99976.77;1802036;77;22171;-48
2021/05/29 09:56:34;;;;;;;5.83;4.90;;;;;;;31.76;35.96;99973.28;1819372;77;28013;-50
2021/05/29 09:59:09;;;;;;;11.50;4.42;;;;;;;31.72;35.96;99974.60;1806625;77;22550;-49
2021/05/29 10:01:53;;;;;;;9.23;4.22;;;;;;;31.64;36.09;99974.05;1851951;77;22167;-60
2021/05/29 10:04:39;;;;;;;4.45;3.67;;;;;;;31.31;36.30;99975.33;1814618;77;22135;-60
2021/05/29 10:07:13;;;;;;;5.95;4.37;;;;;;;30.82;36.62;99975.41;1827614;77;20120;-48
2021/05/29 10:09:47;;;;;;;5.33;4.62;;;;;;;30.45;37.44;99979.21;1853355;77;22174;-48
2021/05/29 10:12:20;;;;;;;7.22;4.53;;;;;;;30.07;37.63;99989.42;1838266;77;22638;-48
2021/05/29 10:14:53;;;;;;;6.20;4.60;;;;;;;29.67;38.31;99987.45;1834938;77;22668;-48
2021/05/29 10:17:27;;;;;;;6.15;3.90;;;;;;;29.30;39.46;99978.39;1790722;77;22197;-48
2021/05/29 10:20:00;;;;;;;10.05;4.45;;;;;;;29.17;39.92;99980.06;1834920;77;22179;-48
2021/05/29 10:22:33;;;;;;;6.22;4.40;;;;;;;28.90;39.91;99979.56;1838856;77;22199;-49
2021/05/29 10:25:15;;;;;;;11.70;5.30;;;;;;;28.76;40.12;99973.62;1822547;77;22159;-59
2021/05/29 10:27:53;;;;;;;5.60;5.08;;;;;;;28.79;40.32;99978.73;1818770;77;22190;-56
2021/05/29 10:30:29;;;;;;;6.40;4.72;;;;;;;29.04;40.96;99974.16;1834885;77;22152;-58
2021/05/29 10:33:12;;;;;;;4.65;4.25;;;;;;;29.51;40.50;99974.58;1815170;77;22178;-60
2021/05/29 10:35:46;;;;;;;9.63;4.65;;;;;;;29.93;39.17;99982.66;1834857;77;22571;-48
2021/05/29 10:38:23;;;;;;;5.47;4.28;;;;;;;30.25;38.12;99978.55;1811808;77;22640;-60
2021/05/29 10:40:55;;;;;;;6.83;4.53;;;;;;;30.31;37.68;99974.34;1819458;77;28368;-59
2021/05/29 10:43:33;;;;;;;8.08;4.33;;;;;;;30.40;37.34;99976.12;1787046;77;22660;-49
2021/05/29 10:46:09;;;;;;;8.65;4.40;;;;;;;30.56;37.23;99975.38;1811042;77;22546;-48
2021/05/29 10:48:50;;;;;;;6.17;3.85;;;;;;;30.73;36.74;99972.81;1806455;77;22170;-49
2021/05/29 10:51:24;;;;;;;10.95;4.67;;;;;;;31.09;36.33;99970.80;1833298;77;22431;-47
2021/05/29 10:53:57;;;;;;;7.33;4.62;;;;;;;31.43;36.54;99975.38;1820914;77;22170;-48
2021/05/29 10:56:31;;;;;;;6.15;4.67;;;;;;;31.84;35.14;99967.83;1834787;77;22184;-49
2021/05/29 11:02:00;;;;;;;5.55;4.70;;;;;;;31.84;34.65;99973.27;1810474;77;27974;-49
2021/05/29 11:04:33;;;;;;;7.62;4.75;;;;;;;31.72;35.02;99976.83;1837612;77;22108;-50
2021/05/29 11:07:26;;;;;;;4.33;3.58;;;;;;;31.67;34.83;99976.44;1784120;80;21158;-48
2021/05/29 11:09:59;;;;;;;5.80;4.60;;;;;;;31.67;34.90;99977.80;1847150;77;22131;-48
2021/05/29 11:12:53;;;;;;;5.30;4.28;;;;;;;31.60;34.25;99973.55;1824419;77;22288;-49
2021/05/29 11:15:55;;;;;;;6.35;4.62;;;;;;;31.52;34.51;99971.33;1834824;77;22183;-50
2021/05/29 11:18:28;;;;;;;6.22;4.05;;;;;;;31.41;35.31;99967.02;1825946;77;22170;-49
2021/05/29 11:21:05;;;;;;;5.78;4.40;;;;;;;31.21;35.04;99964.59;1834827;77;22610;-59
2021/05/29 11:23:38;;;;;;;5.78;4.20;;;;;;;30.91;34.82;99967.30;1807530;77;22214;-59
2021/05/29 11:26:27;;;;;;;6.08;4.10;;;;;;;30.46;35.27;99970.58;1762225;80;21151;-60
2021/05/29 11:29:00;;;;;;;6.42;3.55;;;;;;;30.06;36.08;99974.98;1802839;77;22181;-61
2021/05/29 11:31:45;;;;;;;7.35;3.40;;;;;;;29.91;37.03;99967.88;1853119;77;22151;-60
2021/05/29 11:34:18;;;;;;;5.15;4.03;;;;;;;30.01;37.50;99965.13;1834878;77;22136;-60
2021/05/29 11:37:14;;;;;;;7.25;4.05;;;;;;;30.11;36.78;99973.18;1763653;80;21159;-60
2021/05/29 11:39:53;;;;;;;5.58;3.80;;;;;;;30.25;36.25;99963.63;1827149;77;22626;-59
2021/05/29 11:42:26;;;;;;;8.50;4.00;;;;;;;30.46;35.49;99970.58;1841698;77;22695;-60
2021/05/29 11:45:16;;;;;;;6.53;4.20;;;;;;;30.66;35.20;99962.58;1834830;77;22179;-59
2021/05/29 11:47:53;;;;;;;5.90;4.87;;;;;;;30.97;35.18;99966.14;1805059;77;22203;-59
2021/05/29 11:50:26;;;;;;;6.22;4.67;;;;;;;31.13;35.26;99968.60;1834915;77;22184;-59
2021/05/29 11:53:00;;;;;;;7.78;4.50;;;;;;;31.50;34.84;99964.68;1834162;77;22189;-60
2021/05/29 11:55:53;;;;;;;5.75;4.17;;;;;;;31.44;34.62;99962.13;1823070;77;22617;-59
2021/05/29 11:58:39;;;;;;;4.22;3.62;;;;;;;31.54;34.01;99958.42;1810147;77;22186;-60
2021/05/29 12:01:14;;;;;;;4.97;3.72;;;;;;;31.57;34.23;99963.00;1853219;77;22123;-60
2021/05/29 12:04:03;;;;;;;4.97;3.60;;;;;;;31.65;33.98;99955.88;1790139;78;21323;-59
2021/05/29 12:06:58;;;;;;;5.22;3.70;;;;;;;31.66;33.39;99954.87;1819219;77;28012;-59
2021/05/29 12:09:35;;;;;;;6.00;3.33;;;;;;;31.41;33.11;99952.07;1834827;77;22132;-59
2021/05/29 12:12:10;;;;;;;8.10;2.75;;;;;;;31.27;32.44;99944.91;1827825;77;22614;-61
2021/05/29 12:14:56;;;;;;;5.05;2.90;;;;;;;30.92;33.79;99954.91;1735268;80;21154;-61
2021/05/29 12:17:34;;;;;;;3.95;2.65;;;;;;;31.10;34.23;99944.47;1839587;77;22167;-59
2021/05/29 12:20:10;;;;;;;7.20;2.60;;;;;;;31.18;33.69;99949.11;1853174;77;22567;-61
2021/05/29 12:22:43;;;;;;;4.45;2.30;;;;;;;31.23;33.88;99944.03;1808425;77;22201;-60
2021/05/29 12:25:17;;;;;;;7.17;2.37;;;;;;;31.67;33.40;99943.80;1834942;77;22167;-59
2021/05/29 12:27:51;;;;;;;7.83;2.12;;;;;;;30.54;34.67;99945.69;1790335;77;22179;-61
2021/05/29 12:30:24;;;;;;;4.35;2.00;;;;;;;30.52;35.16;99942.27;1834789;77;22611;-59